createdAt,value
2018-09-04T00:01:25.508Z,84.42
2018-09-04T00:04:00.231Z,84.71
2018-09-04T00:06:34.983Z,84.84
2018-09-04T00:09:09.693Z,84.49
2018-09-04T00:11:44.183Z,84.66
2018-09-04T00:14:19.265Z,84.78
2018-09-04T00:16:53.884Z,84.97
2018-09-04T00:19:28.436Z,85.33
2018-09-04T00:22:02.931Z,84.92
2018-09-04T00:24:37.977Z,84.89
2018-09-04T00:27:13.086Z,85.43
2018-09-04T00:29:47.512Z,84.91
2018-09-04T00:32:22.175Z,84.69
2018-09-04T00:34:56.693Z,85.12
2018-09-04T00:37:31.623Z,85.12
2018-09-04T00:40:06.591Z,85.67
2018-09-04T00:42:40.923Z,85.54
2018-09-04T00:45:15.600Z,85.32
2018-09-04T00:47:50.067Z,85.23
2018-09-04T00:50:25.392Z,84.94
2018-09-04T00:52:59.831Z,85.17
2018-09-04T00:55:34.458Z,85.62
2018-09-04T00:58:09.656Z,85.42
2018-09-04T01:00:44.608Z,85.63
2018-09-04T01:03:19.251Z,85.37
2018-09-04T01:05:54.009Z,86.38
2018-09-04T01:08:28.492Z,85.81
2018-09-04T01:11:02.751Z,86.62
2018-09-04T01:13:43.944Z,86.05
2018-09-04T01:16:18.803Z,86.70
2018-09-04T01:18:53.358Z,86.97
2018-09-04T01:21:27.892Z,86.88
2018-09-04T01:24:02.592Z,86.95
2018-09-04T01:26:36.943Z,86.51
2018-09-04T01:29:11.372Z,86.54
2018-09-04T01:31:45.843Z,87.15
2018-09-04T01:34:20.659Z,87.05
2018-09-04T01:36:55.097Z,87.60
2018-09-04T01:39:29.439Z,87.23
2018-09-04T01:42:04.713Z,87.01
2018-09-04T01:44:39.546Z,87.69
2018-09-04T01:47:14.218Z,87.76
2018-09-04T01:49:48.611Z,87.92
2018-09-04T01:52:23.167Z,87.19
2018-09-04T01:54:57.721Z,88.04
2018-09-04T01:57:32.465Z,87.98
2018-09-04T02:00:08.122Z,88.13
2018-09-04T02:02:42.632Z,87.65
2018-09-04T02:05:17.704Z,87.81
2018-09-04T02:07:52.101Z,88.42
2018-09-04T02:10:26.450Z,88.26
2018-09-04T02:13:00.884Z,87.87
2018-09-04T02:15:35.320Z,88.20
2018-09-04T02:18:10.284Z,87.84
2018-09-04T02:20:45.077Z,88.28
2018-09-04T02:23:19.755Z,88.41
2018-09-04T02:25:54.060Z,87.33
2018-09-04T02:28:28.727Z,88.48
2018-09-04T02:31:03.239Z,89.21
2018-09-04T02:33:37.527Z,89.07
2018-09-04T02:36:12.286Z,88.19
2018-09-04T02:38:47.200Z,88.64
2018-09-04T02:41:21.911Z,88.46
2018-09-04T02:43:56.908Z,88.85
2018-09-04T02:46:31.196Z,88.76
2018-09-04T02:49:06.746Z,88.66
2018-09-04T02:51:41.229Z,88.29
2018-09-04T02:54:15.795Z,89.11
2018-09-04T02:56:50.782Z,88.49
2018-09-04T02:59:25.231Z,88.76
2018-09-04T03:01:59.607Z,88.87
2018-09-04T03:04:33.915Z,89.23
2018-09-04T03:07:08.340Z,88.97
2018-09-04T03:09:42.632Z,89.26
2018-09-04T03:12:17.025Z,89.42
2018-09-04T03:14:51.569Z,89.88
2018-09-04T03:17:26.120Z,88.97
2018-09-04T03:20:00.573Z,88.76
2018-09-04T03:22:35.040Z,89.62
2018-09-04T03:25:09.812Z,89.16
2018-09-04T03:27:44.388Z,89.96
2018-09-04T03:30:18.803Z,89.84
2018-09-04T03:32:53.479Z,89.14
2018-09-04T03:35:28.780Z,88.92
2018-09-04T03:38:03.101Z,88.60
2018-09-04T03:40:37.598Z,88.87
2018-09-04T03:43:11.998Z,88.83
2018-09-04T03:45:46.352Z,89.14
2018-09-04T03:48:20.803Z,88.41
2018-09-04T03:50:55.404Z,88.55
2018-09-04T03:53:29.815Z,88.88
2018-09-04T03:56:04.418Z,88.46
2018-09-04T03:58:39.528Z,89.13
2018-09-04T04:01:14.502Z,89.32
2018-09-04T04:03:49.089Z,88.75
2018-09-04T04:06:23.906Z,89.26
2018-09-04T04:08:58.396Z,88.30
2018-09-04T04:11:32.876Z,88.21
2018-09-04T04:14:08.400Z,88.30
2018-09-04T04:16:42.783Z,88.44
2018-09-04T04:19:17.087Z,88.56
2018-09-04T04:21:51.780Z,88.95
2018-09-04T04:24:26.409Z,88.65
2018-09-04T04:27:00.929Z,88.85
2018-09-04T04:29:35.384Z,88.78
2018-09-04T04:32:09.813Z,88.62
2018-09-04T04:34:44.341Z,88.39
2018-09-04T04:37:18.704Z,88.96
2018-09-04T04:39:53.181Z,89.24
2018-09-04T04:42:27.757Z,88.75
2018-09-04T04:45:02.940Z,89.69
2018-09-04T04:47:43.004Z,90.06
2018-09-04T04:50:18.617Z,89.31
2018-09-04T04:52:53.511Z,89.58
2018-09-04T04:55:28.112Z,88.80
2018-09-04T04:58:02.915Z,89.21
2018-09-04T05:00:37.324Z,89.72
2018-09-04T05:03:11.791Z,89.42
2018-09-04T05:05:46.489Z,89.66
2018-09-04T05:08:21.168Z,89.34
2018-09-04T05:10:55.559Z,89.50
2018-09-04T05:13:30.348Z,89.50
2018-09-04T05:16:05.516Z,89.23
2018-09-04T05:18:39.880Z,89.03
2018-09-04T05:21:14.444Z,89.01
2018-09-04T05:23:49.120Z,89.19
2018-09-04T05:26:23.576Z,88.90
2018-09-04T05:28:58.250Z,89.35
2018-09-04T05:31:37.491Z,89.49
2018-09-04T05:34:12.164Z,89.53
2018-09-04T05:36:46.886Z,89.73
2018-09-04T05:39:21.749Z,89.75
2018-09-04T05:42:00.834Z,89.31
2018-09-04T05:44:35.440Z,89.51
2018-09-04T05:47:10.605Z,89.74
2018-09-04T05:49:45.068Z,89.77
2018-09-04T05:52:19.559Z,89.63
2018-09-04T05:54:54.456Z,89.05
2018-09-04T05:57:29.161Z,89.12
2018-09-04T06:00:07.263Z,89.56
2018-09-04T06:02:42.122Z,89.20
2018-09-04T06:05:16.459Z,89.35
2018-09-04T06:07:51.220Z,89.15
2018-09-04T06:10:25.951Z,89.87
2018-09-04T06:13:00.324Z,89.76
2018-09-04T06:15:35.429Z,89.92
2018-09-04T06:18:09.950Z,89.84
2018-09-04T06:20:44.815Z,89.68
2018-09-04T06:23:19.260Z,89.88
2018-09-04T06:25:53.672Z,89.33
2018-09-04T06:28:28.483Z,89.54
2018-09-04T06:31:04.581Z,89.64
2018-09-04T06:33:39.445Z,89.79
2018-09-04T06:36:14.127Z,89.48
2018-09-04T06:38:49.185Z,89.02
2018-09-04T06:41:23.472Z,89.04
2018-09-04T06:43:57.908Z,88.35
2018-09-04T06:46:32.501Z,89.04
2018-09-04T06:49:07.128Z,88.44
2018-09-04T06:51:42.035Z,88.43
2018-09-04T06:54:17.990Z,88.03
2018-09-04T06:56:52.411Z,87.33
2018-09-04T06:59:27.091Z,87.74
2018-09-04T07:02:01.410Z,88.13
2018-09-04T07:04:35.715Z,88.32
2018-09-04T07:07:10.082Z,88.71
2018-09-04T07:09:44.644Z,88.81
2018-09-04T07:12:19.284Z,88.61
2018-09-04T07:14:53.771Z,88.97
2018-09-04T07:17:28.172Z,88.72
2018-09-04T07:20:03.278Z,88.20
2018-09-04T07:22:37.978Z,88.35
2018-09-04T07:25:12.720Z,88.20
2018-09-04T07:27:47.131Z,88.01
2018-09-04T07:30:22.043Z,88.21
2018-09-04T07:32:56.331Z,88.04
2018-09-04T07:35:30.695Z,88.65
2018-09-04T07:38:05.528Z,87.97
2018-09-04T07:40:40.296Z,87.94
2018-09-04T07:43:14.622Z,87.85
2018-09-04T07:45:48.901Z,86.84
2018-09-04T07:48:23.246Z,87.21
2018-09-04T07:50:57.788Z,87.70
2018-09-04T07:53:32.348Z,87.95
2018-09-04T07:56:06.784Z,87.48
2018-09-04T07:58:41.229Z,87.40
2018-09-04T08:01:15.990Z,87.29
2018-09-04T08:03:50.483Z,87.73
2018-09-04T08:06:24.884Z,86.19
2018-09-04T08:08:59.346Z,86.93
2018-09-04T08:11:34.430Z,87.07
2018-09-04T08:14:09.237Z,86.77
2018-09-04T08:16:43.955Z,86.70
2018-09-04T08:19:18.496Z,86.87
2018-09-04T08:21:52.952Z,87.22
2018-09-04T08:24:27.342Z,87.83
2018-09-04T08:27:01.735Z,87.25
2018-09-04T08:29:36.548Z,87.71
2018-09-04T08:32:10.892Z,87.68
2018-09-04T08:34:45.311Z,87.51
2018-09-04T08:37:19.679Z,87.48
2018-09-04T08:39:54.400Z,86.79
2018-09-04T08:42:28.988Z,86.42
2018-09-04T08:45:03.295Z,86.79
2018-09-04T08:47:38.725Z,86.56
2018-09-04T08:50:13.143Z,86.92
2018-09-04T08:52:47.985Z,86.56
2018-09-04T08:55:22.632Z,87.02
2018-09-04T08:57:57.724Z,87.76
2018-09-04T09:00:32.475Z,87.20
2018-09-04T09:03:07.696Z,87.49
2018-09-04T09:05:42.199Z,87.12
2018-09-04T09:08:16.960Z,86.32
2018-09-04T09:10:51.743Z,86.18
2018-09-04T09:13:26.487Z,86.44
2018-09-04T09:16:01.652Z,86.16
2018-09-04T09:18:35.990Z,86.49
2018-09-04T09:21:10.446Z,86.10
2018-09-04T09:23:44.903Z,87.16
2018-09-04T09:26:19.261Z,86.56
2018-09-04T09:28:53.961Z,87.25
2018-09-04T09:31:28.564Z,86.41
2018-09-04T09:34:03.001Z,87.15
2018-09-04T09:36:37.447Z,87.46
2018-09-04T09:39:12.161Z,87.03
2018-09-04T09:41:46.632Z,86.64
2018-09-04T09:44:21.304Z,86.15
2018-09-04T09:47:01.126Z,86.26
2018-09-04T09:49:35.479Z,86.68
2018-09-04T09:52:10.670Z,87.24
2018-09-04T09:54:45.461Z,87.11
2018-09-04T09:57:19.847Z,87.10
2018-09-04T09:59:54.280Z,86.95
2018-09-04T10:02:34.383Z,86.76
2018-09-04T10:05:09.216Z,86.54
2018-09-04T10:07:44.216Z,86.41
2018-09-04T10:10:18.764Z,86.62
2018-09-04T10:12:54.156Z,87.01
2018-09-04T10:15:28.872Z,86.28
2018-09-04T10:18:05.304Z,86.63
2018-09-04T10:20:39.700Z,87.30
2018-09-04T10:23:14.599Z,87.84
2018-09-04T10:25:49.724Z,87.58
2018-09-04T10:28:24.579Z,88.00
2018-09-04T10:30:59.292Z,88.20
2018-09-04T10:33:33.624Z,86.92
2018-09-04T10:36:08.179Z,87.18
2018-09-04T10:38:42.861Z,87.89
2018-09-04T10:41:17.460Z,88.27
2018-09-04T10:43:51.899Z,88.77
2018-09-04T10:46:26.687Z,87.36
2018-09-04T10:49:01.019Z,87.10
2018-09-04T10:51:35.926Z,87.65
2018-09-04T10:54:10.376Z,88.28
2018-09-04T10:56:50.120Z,88.62
2018-09-04T10:59:24.983Z,87.64
2018-09-04T11:01:59.636Z,86.82
2018-09-04T11:04:35.157Z,87.28
2018-09-04T11:07:09.588Z,86.76
2018-09-04T11:09:44.088Z,87.49
2018-09-04T11:12:18.778Z,87.21
2018-09-04T11:14:53.219Z,87.33
2018-09-04T11:17:27.875Z,87.48
2018-09-04T11:20:02.844Z,86.86
2018-09-04T11:22:37.315Z,87.35
2018-09-04T11:25:11.723Z,87.16
2018-09-04T11:27:46.399Z,87.27
2018-09-04T11:30:20.916Z,87.13
2018-09-04T11:32:55.436Z,87.23
2018-09-04T11:35:29.857Z,87.35
2018-09-04T11:38:04.304Z,87.35
2018-09-04T11:40:39.106Z,85.41
2018-09-04T11:43:14.395Z,86.91
2018-09-04T11:45:48.679Z,87.12
2018-09-04T11:48:23.091Z,86.17
2018-09-04T11:50:57.943Z,85.53
2018-09-04T11:53:33.040Z,85.59
2018-09-04T11:56:07.303Z,85.96
2018-09-04T11:58:46.737Z,85.17
2018-09-04T12:01:24.976Z,85.87
2018-09-04T12:03:59.499Z,85.40
2018-09-04T12:06:33.846Z,84.56
2018-09-04T12:09:08.934Z,85.42
2018-09-04T12:11:48.091Z,85.56
2018-09-04T12:14:23.056Z,86.60
2018-09-04T12:16:57.491Z,85.75
2018-09-04T12:19:46.286Z,85.41
2018-09-04T12:22:20.958Z,85.17
2018-09-04T12:24:55.754Z,84.64
2018-09-04T12:27:30.573Z,85.59
2018-09-04T12:30:05.711Z,85.47
2018-09-04T12:32:40.295Z,85.45
2018-09-04T12:35:15.349Z,86.40
2018-09-04T12:37:49.674Z,85.95
2018-09-04T12:40:24.599Z,87.23
2018-09-04T12:43:00.960Z,87.67
2018-09-04T12:45:41.269Z,87.20
2018-09-04T12:48:25.510Z,85.14
2018-09-04T12:51:01.636Z,85.66
2018-09-04T12:53:36.083Z,85.67
2018-09-04T12:56:10.816Z,86.05
2018-09-04T12:58:45.507Z,85.44
2018-09-04T13:01:19.976Z,86.72
2018-09-04T13:03:54.675Z,84.69
2018-09-04T13:06:31.585Z,83.56
2018-09-04T13:09:07.388Z,82.69
2018-09-04T13:11:42.034Z,82.29
2018-09-04T13:14:16.311Z,77.59
2018-09-04T13:16:50.671Z,76.44
2018-09-04T13:19:25.101Z,76.15
2018-09-04T13:22:00.088Z,78.66
2018-09-04T13:24:35.200Z,76.74
2018-09-04T13:27:09.742Z,77.22
2018-09-04T13:29:44.449Z,77.89
2018-09-04T13:32:19.190Z,77.19
2018-09-04T13:34:53.675Z,76.94
2018-09-04T13:37:28.072Z,76.98
2018-09-04T13:40:03.464Z,78.27
2018-09-04T13:42:38.235Z,77.46
2018-09-04T13:45:13.150Z,75.52
2018-09-04T13:47:47.824Z,76.34
2018-09-04T13:50:22.679Z,75.88
2018-09-04T13:52:57.825Z,76.17
2018-09-04T13:55:32.339Z,75.60
2018-09-04T13:58:06.743Z,74.75
2018-09-04T14:00:41.068Z,72.68
2018-09-04T14:03:15.555Z,74.70
2018-09-04T14:05:49.868Z,69.30
2018-09-04T14:08:24.307Z,73.51
2018-09-04T14:10:59.813Z,74.24
2018-09-04T14:13:34.449Z,72.48
2018-09-04T14:16:10.196Z,67.79
2018-09-04T14:18:44.920Z,69.11
2018-09-04T14:21:19.256Z,66.89
2018-09-04T14:23:54.043Z,64.39
2018-09-04T14:26:28.607Z,64.60
2018-09-04T14:29:06.958Z,63.60
2018-09-04T14:31:38.001Z,65.47
2018-09-04T14:34:12.481Z,65.04
2018-09-04T14:36:47.273Z,63.87
2018-09-04T14:39:22.183Z,65.73
2018-09-04T14:41:56.607Z,69.78
2018-09-04T14:44:31.064Z,68.37
2018-09-04T14:47:05.760Z,69.18
2018-09-04T14:49:40.095Z,67.17
2018-09-04T14:52:14.391Z,67.02
2018-09-04T14:54:48.749Z,67.18
2018-09-04T14:57:23.541Z,67.41
2018-09-04T14:59:58.096Z,66.31
2018-09-04T15:02:32.892Z,63.22
2018-09-04T15:05:11.309Z,65.49
2018-09-04T15:07:45.834Z,64.07
2018-09-04T15:10:20.447Z,61.95
2018-09-04T15:12:55.232Z,62.35
2018-09-04T15:15:30.237Z,63.96
2018-09-04T15:18:05.016Z,67.04
2018-09-04T15:20:39.915Z,66.60
2018-09-04T15:23:14.688Z,64.97
2018-09-04T15:25:49.109Z,66.20
2018-09-04T15:28:33.198Z,67.00
2018-09-04T15:31:15.260Z,65.14
2018-09-04T15:33:50.214Z,64.64
2018-09-04T15:36:25.081Z,66.33
2018-09-04T15:38:59.613Z,64.48
2018-09-04T15:41:34.127Z,64.82
2018-09-04T15:44:10.862Z,63.05
2018-09-04T15:46:45.424Z,64.17
2018-09-04T15:49:25.425Z,63.65
2018-09-04T15:52:25.776Z,63.82
2018-09-04T15:55:01.876Z,63.52
2018-09-04T15:57:36.487Z,64.49
2018-09-04T16:00:10.832Z,63.13
2018-09-04T16:02:45.199Z,65.92
2018-09-04T16:05:20.221Z,65.15
2018-09-04T16:07:54.748Z,65.74
2018-09-04T16:10:29.078Z,66.17
2018-09-04T16:13:03.592Z,67.04
2018-09-04T16:15:38.431Z,66.32
2018-09-04T16:18:12.772Z,67.10
2018-09-04T16:20:47.436Z,67.25
2018-09-04T16:23:21.907Z,66.86
2018-09-04T16:26:06.618Z,68.89
2018-09-04T16:28:41.506Z,68.51
2018-09-04T16:31:15.964Z,68.75
2018-09-04T16:33:50.635Z,67.76
2018-09-04T16:36:25.385Z,67.50
2018-09-04T16:38:59.847Z,70.95
2018-09-04T16:41:34.361Z,70.16
2018-09-04T16:44:08.923Z,70.11
2018-09-04T16:46:49.054Z,71.18
2018-09-04T16:49:25.847Z,72.95
2018-09-04T16:52:14.614Z,72.81
2018-09-04T16:54:49.412Z,73.91
2018-09-04T16:57:24.115Z,73.47
2018-09-04T16:59:59.210Z,72.51
2018-09-04T17:02:34.240Z,72.07
2018-09-04T17:05:09.109Z,70.02
2018-09-04T17:07:44.207Z,73.73
2018-09-04T17:10:19.064Z,72.70
2018-09-04T17:12:53.522Z,74.84
2018-09-04T17:15:28.267Z,75.20
2018-09-04T17:18:03.013Z,74.96
2018-09-04T17:20:37.331Z,74.77
2018-09-04T17:23:11.736Z,74.46
2018-09-04T17:25:46.901Z,74.14
2018-09-04T17:28:21.480Z,72.59
2018-09-04T17:30:56.036Z,75.63
2018-09-04T17:33:30.441Z,76.18
2018-09-04T17:36:04.727Z,76.16
2018-09-04T17:38:39.128Z,76.84
2018-09-04T17:41:13.840Z,77.39
2018-09-04T17:43:50.276Z,77.46
2018-09-04T17:46:24.957Z,78.67
2018-09-04T17:48:59.335Z,78.93
2018-09-04T17:51:33.792Z,78.96
2018-09-04T17:54:14.248Z,79.06
2018-09-04T17:56:48.715Z,78.53
2018-09-04T17:59:24.156Z,79.97
2018-09-04T18:01:58.671Z,81.43
2018-09-04T18:04:33.676Z,80.63
2018-09-04T18:07:08.456Z,79.81
2018-09-04T18:09:43.024Z,79.64
2018-09-04T18:12:17.892Z,80.53
2018-09-04T18:14:52.688Z,80.21
2018-09-04T18:17:27.384Z,80.34
2018-09-04T18:20:02.732Z,80.60
2018-09-04T18:22:37.516Z,80.94
2018-09-04T18:25:11.808Z,81.38
2018-09-04T18:27:46.176Z,82.62
2018-09-04T18:30:20.456Z,82.36
2018-09-04T18:32:55.579Z,82.83
2018-09-04T18:35:30.259Z,82.15
2018-09-04T18:38:05.175Z,83.49
2018-09-04T18:40:40.031Z,83.18
2018-09-04T18:43:14.809Z,82.73
2018-09-04T18:45:57.179Z,83.40
2018-09-04T18:48:31.557Z,84.08
2018-09-04T18:51:06.065Z,83.99
2018-09-04T18:53:41.052Z,83.54
2018-09-04T18:56:15.471Z,84.10
2018-09-04T18:58:50.538Z,84.06
2018-09-04T19:01:25.036Z,84.07
2018-09-04T19:03:59.323Z,84.41
2018-09-04T19:06:33.840Z,84.12
2018-09-04T19:09:08.560Z,84.47
2018-09-04T19:11:43.829Z,84.59
2018-09-04T19:14:18.328Z,84.43
2018-09-04T19:16:53.467Z,84.36
2018-09-04T19:19:28.401Z,83.88
2018-09-04T19:22:03.227Z,84.34
2018-09-04T19:24:37.600Z,83.84
2018-09-04T19:27:12.307Z,83.83
2018-09-04T19:29:46.844Z,84.67
2018-09-04T19:32:21.264Z,84.01
2018-09-04T19:34:55.696Z,84.78
2018-09-04T19:37:30.484Z,84.96
2018-09-04T19:40:05.639Z,84.42
2018-09-04T19:42:41.458Z,84.79
2018-09-04T19:45:15.784Z,84.30
2018-09-04T19:47:50.253Z,84.34
2018-09-04T19:50:24.956Z,84.24
2018-09-04T19:52:59.580Z,84.23
2018-09-04T19:55:34.228Z,83.96
2018-09-04T19:58:08.836Z,84.69
2018-09-04T20:00:43.332Z,84.12
2018-09-04T20:03:18.114Z,84.38
2018-09-04T20:05:52.569Z,85.18
2018-09-04T20:08:27.022Z,84.45
2018-09-04T20:11:01.324Z,84.39
2018-09-04T20:13:36.243Z,84.79
2018-09-04T20:16:10.707Z,85.57
2018-09-04T20:18:45.199Z,85.78
2018-09-04T20:21:19.691Z,86.22
2018-09-04T20:23:54.203Z,85.55
2018-09-04T20:26:28.930Z,85.40
2018-09-04T20:29:03.417Z,86.29
2018-09-04T20:31:38.199Z,86.47
2018-09-04T20:34:12.580Z,85.55
2018-09-04T20:36:47.040Z,85.45
2018-09-04T20:39:21.505Z,86.35
2018-09-04T20:41:56.711Z,85.98
2018-09-04T20:44:31.412Z,86.46
2018-09-04T20:47:06.337Z,86.20
2018-09-04T20:49:41.374Z,85.65
2018-09-04T20:52:15.788Z,86.55
2018-09-04T20:54:50.310Z,85.70
2018-09-04T20:57:41.143Z,86.15
2018-09-04T21:00:26.791Z,86.77
2018-09-04T21:03:12.493Z,86.37
2018-09-04T21:05:58.316Z,87.00
2018-09-04T21:08:47.076Z,86.18
2018-09-04T21:11:21.951Z,86.76
2018-09-04T21:13:56.416Z,86.98
2018-09-04T21:16:31.112Z,86.36
2018-09-04T21:19:05.868Z,87.03
2018-09-04T21:21:40.335Z,86.84
2018-09-04T21:24:14.748Z,86.67
2018-09-04T21:26:50.197Z,86.94
2018-09-04T21:29:25.305Z,86.62
2018-09-04T21:31:59.916Z,86.36
2018-09-04T21:34:34.484Z,86.51
2018-09-04T21:37:09.123Z,87.19
2018-09-04T21:39:43.477Z,86.48
2018-09-04T21:42:18.530Z,86.35
2018-09-04T21:44:53.207Z,86.44
2018-09-04T21:47:27.928Z,86.67
2018-09-04T21:50:02.512Z,86.85
2018-09-04T21:52:37.336Z,86.81
2018-09-04T21:55:11.683Z,87.07
2018-09-04T21:57:46.104Z,86.47
2018-09-04T22:00:25.319Z,86.41
2018-09-04T22:02:59.865Z,87.02
2018-09-04T22:05:34.731Z,86.73
2018-09-04T22:08:09.215Z,86.45
2018-09-04T22:10:44.127Z,86.65
2018-09-04T22:13:19.142Z,86.32
2018-09-04T22:15:53.888Z,86.38
2018-09-04T22:18:28.155Z,87.10
2018-09-04T22:21:02.789Z,86.43
2018-09-04T22:23:38.027Z,86.52
2018-09-04T22:26:12.417Z,86.43
2018-09-04T22:28:47.248Z,86.13
2018-09-04T22:31:22.285Z,86.04
2018-09-04T22:33:56.705Z,86.47
2018-09-04T22:36:31.002Z,86.79
2018-09-04T22:39:06.881Z,86.97
2018-09-04T22:41:41.838Z,86.24
2018-09-04T22:44:16.628Z,87.04
2018-09-04T22:46:51.531Z,86.86
2018-09-04T22:49:26.175Z,86.76
2018-09-04T22:52:01.555Z,86.93
2018-09-04T22:54:36.211Z,86.83
2018-09-04T22:57:10.940Z,86.19
2018-09-04T22:59:45.651Z,86.05
2018-09-04T23:02:20.898Z,86.56
2018-09-04T23:04:55.655Z,86.06
2018-09-04T23:07:30.183Z,86.13
2018-09-04T23:10:04.755Z,86.63
2018-09-04T23:12:39.318Z,86.34
2018-09-04T23:15:13.845Z,86.13
2018-09-04T23:17:48.164Z,86.04
2018-09-04T23:20:25.254Z,86.95
2018-09-04T23:22:59.955Z,86.51
2018-09-04T23:25:35.786Z,87.08
2018-09-04T23:28:12.688Z,87.09
2018-09-04T23:30:48.024Z,86.19
2018-09-04T23:33:22.581Z,86.49
2018-09-04T23:35:57.210Z,86.36
2018-09-04T23:38:31.659Z,85.91
2018-09-04T23:41:07.124Z,85.88
2018-09-04T23:47:19.667Z,85.63
2018-09-04T23:49:54.123Z,86.39
2018-09-04T23:52:28.449Z,86.81
2018-09-04T23:55:03.251Z,86.64
2018-09-04T23:57:37.943Z,86.85
